Time;durP1;ratioP1;P1;durP2;ratioP2;P2;SDS_P1;SDS_P2;PMS_P1;PMS_P2;Temp;Humidity;BMP_temperature;BMP_pressure;BME280_temperature;BME280_humidity;BME280_pressure;Samples;Min_cycle;Max_cycle;Signal;HPM_P1;HPM_P2
2023/09/16 00:01:59;;;;;;;10.48;7.55;;;;;;;;;;4994425;28;20042;-71
2023/09/16 00:04:25;;;;;;;14.60;7.45;;;;;;;;;;4987489;28;20073;-71
2023/09/16 00:06:51;;;;;;;12.65;7.88;;;;;;;;;;4993522;28;20039;-71
2023/09/16 00:09:17;;;;;;;11.38;8.18;;;;;;;;;;4986454;28;20030;-71
2023/09/16 00:11:43;;;;;;;8.80;6.80;;;;;;;;;;4985615;28;20042;-71
2023/09/16 00:14:09;;;;;;;12.35;7.95;;;;;;;;;;4994076;28;20030;-71
2023/09/16 00:16:35;;;;;;;9.90;7.32;;;;;;;;;;4993401;28;20041;-71
2023/09/16 00:19:02;;;;;;;10.30;8.07;;;;;;;;;;4985910;28;20053;-71
2023/09/16 00:21:28;;;;;;;10.68;7.30;;;;;;;;;;4993947;28;20050;-71
2023/09/16 00:23:54;;;;;;;9.00;7.88;;;;;;;;;;4992792;28;20539;-71
2023/09/16 00:26:21;;;;;;;9.70;7.63;;;;;;;;;;4993534;28;20110;-71
2023/09/16 00:28:47;;;;;;;11.25;8.48;;;;;;;;;;4993571;28;20038;-71
2023/09/16 00:31:13;;;;;;;10.80;7.22;;;;;;;;;;4993898;28;20056;-71
2023/09/16 00:33:39;;;;;;;10.27;7.40;;;;;;;;;;4991569;28;20489;-71
2023/09/16 00:36:05;;;;;;;11.13;7.68;;;;;;;;;;4993510;28;20719;-71
2023/09/16 00:38:31;;;;;;;10.35;7.72;;;;;;;;;;4992046;28;20046;-71
2023/09/16 00:40:57;;;;;;;9.20;7.20;;;;;;;;;;4993146;28;20037;-71
2023/09/16 00:43:23;;;;;;;12.85;7.75;;;;;;;;;;4993592;28;20550;-71
2023/09/16 00:45:49;;;;;;;10.48;7.95;;;;;;;;;;4993274;28;20069;-71
2023/09/16 00:48:17;;;;;;;8.60;6.70;;;;;;;;;;4992590;28;20110;-71
2023/09/16 00:50:44;;;;;;;9.00;7.43;;;;;;;;;;4993038;28;20128;-71
2023/09/16 00:53:10;;;;;;;10.00;7.85;;;;;;;;;;4993345;28;20042;-71
2023/09/16 00:55:36;;;;;;;11.40;8.13;;;;;;;;;;4993318;28;20046;-71
2023/09/16 00:58:02;;;;;;;8.43;7.50;;;;;;;;;;4992676;28;20393;-71
2023/09/16 01:00:28;;;;;;;9.98;7.25;;;;;;;;;;4984997;28;20508;-71
2023/09/16 01:02:56;;;;;;;10.77;7.22;;;;;;;;;;4991948;28;20034;-71
2023/09/16 01:05:22;;;;;;;9.57;7.93;;;;;;;;;;4992456;28;20121;-71
2023/09/16 01:07:50;;;;;;;10.48;7.80;;;;;;;;;;4992815;28;20517;-71
2023/09/16 01:10:18;;;;;;;9.48;7.80;;;;;;;;;;4992834;28;20078;-71
2023/09/16 01:12:44;;;;;;;11.23;7.95;;;;;;;;;;4993074;28;20042;-71
2023/09/16 01:15:13;;;;;;;10.27;8.10;;;;;;;;;;4990767;28;20082;-71
2023/09/16 01:17:59;;;;;;;8.75;7.00;;;;;;;;;;4993270;28;20416;-71
2023/09/16 01:20:25;;;;;;;11.65;7.47;;;;;;;;;;4993157;28;20382;-71
2023/09/16 01:22:51;;;;;;;11.60;8.65;;;;;;;;;;4993407;28;20042;-71
2023/09/16 01:25:17;;;;;;;10.75;8.10;;;;;;;;;;4992782;28;20030;-71
2023/09/16 01:27:44;;;;;;;10.82;8.38;;;;;;;;;;4982323;28;20051;-71
2023/09/16 01:30:10;;;;;;;9.80;7.82;;;;;;;;;;4987113;28;20396;-71
2023/09/16 01:32:46;;;;;;;8.95;7.78;;;;;;;;;;4992680;28;20566;-71
2023/09/16 01:35:14;;;;;;;11.90;9.00;;;;;;;;;;4992483;28;20039;-71
2023/09/16 01:37:43;;;;;;;12.18;9.40;;;;;;;;;;4992863;28;20061;-71
2023/09/16 01:40:11;;;;;;;11.68;9.05;;;;;;;;;;4992372;28;20049;-71
2023/09/16 01:42:37;;;;;;;10.60;8.35;;;;;;;;;;4991567;28;20404;-71
2023/09/16 01:45:04;;;;;;;13.90;8.40;;;;;;;;;;4990778;28;20046;-71
2023/09/16 01:47:30;;;;;;;10.60;8.23;;;;;;;;;;4990507;28;20046;-71
2023/09/16 01:49:56;;;;;;;10.20;7.78;;;;;;;;;;4991013;28;20118;-71
2023/09/16 01:52:22;;;;;;;8.57;6.82;;;;;;;;;;4992895;28;20035;-71
2023/09/16 01:54:48;;;;;;;8.32;6.68;;;;;;;;;;4974674;28;20031;-71
2023/09/16 01:57:14;;;;;;;10.85;8.25;;;;;;;;;;4992492;28;20069;-71
2023/09/16 01:59:40;;;;;;;11.63;8.68;;;;;;;;;;4982623;28;20097;-71
2023/09/16 02:02:06;;;;;;;11.05;8.82;;;;;;;;;;4992506;28;20042;-70
2023/09/16 02:04:32;;;;;;;10.68;9.00;;;;;;;;;;4995122;28;20061;-70
2023/09/16 02:06:58;;;;;;;8.73;6.80;;;;;;;;;;4995077;28;20100;-70
2023/09/16 02:09:25;;;;;;;8.52;6.90;;;;;;;;;;4996233;28;20043;-70
2023/09/16 02:11:51;;;;;;;10.15;8.20;;;;;;;;;;4995893;28;20034;-70
2023/09/16 02:14:18;;;;;;;10.98;8.45;;;;;;;;;;4994867;28;20125;-70
2023/09/16 02:16:45;;;;;;;11.90;9.27;;;;;;;;;;4995831;28;20050;-70
2023/09/16 02:19:11;;;;;;;9.32;8.18;;;;;;;;;;4996437;28;20053;-70
2023/09/16 02:21:37;;;;;;;10.20;8.65;;;;;;;;;;4985756;28;20101;-70
2023/09/16 02:24:04;;;;;;;11.40;8.65;;;;;;;;;;4996216;28;20060;-70
2023/09/16 02:26:30;;;;;;;11.80;9.05;;;;;;;;;;4995226;28;20121;-70
2023/09/16 02:28:56;;;;;;;11.43;9.10;;;;;;;;;;4995593;28;20440;-70
2023/09/16 02:31:26;;;;;;;11.00;9.48;;;;;;;;;;4995983;28;20050;-70
2023/09/16 02:33:52;;;;;;;11.87;9.97;;;;;;;;;;4996229;28;20038;-70
2023/09/16 02:36:18;;;;;;;12.32;9.63;;;;;;;;;;4995562;28;20378;-70
2023/09/16 02:38:44;;;;;;;13.68;9.52;;;;;;;;;;4995470;28;20117;-70
2023/09/16 02:41:10;;;;;;;11.50;8.82;;;;;;;;;;4995580;28;20049;-70
2023/09/16 02:43:36;;;;;;;11.68;9.35;;;;;;;;;;4995777;28;20077;-70
2023/09/16 02:46:02;;;;;;;12.20;9.10;;;;;;;;;;4994796;28;20125;-70
2023/09/16 02:48:28;;;;;;;9.85;8.38;;;;;;;;;;4987747;28;20049;-70
2023/09/16 02:50:53;;;;;;;11.70;8.90;;;;;;;;;;4995508;28;20475;-70
2023/09/16 02:53:19;;;;;;;10.35;8.85;;;;;;;;;;4995275;28;20050;-70
2023/09/16 02:55:45;;;;;;;12.68;9.00;;;;;;;;;;4994827;28;20034;-70
2023/09/16 02:58:11;;;;;;;11.07;8.52;;;;;;;;;;4995471;28;20034;-70
2023/09/16 03:00:37;;;;;;;11.07;8.95;;;;;;;;;;4994060;28;20057;-70
2023/09/16 03:03:03;;;;;;;10.30;7.95;;;;;;;;;;4995166;28;20034;-70
2023/09/16 03:05:30;;;;;;;12.43;9.40;;;;;;;;;;4994996;28;20038;-70
2023/09/16 03:07:56;;;;;;;10.10;7.53;;;;;;;;;;4995274;28;20038;-70
2023/09/16 03:10:22;;;;;;;9.38;7.25;;;;;;;;;;4994658;28;20049;-69
2023/09/16 03:12:48;;;;;;;9.63;7.63;;;;;;;;;;4994659;28;20066;-70
2023/09/16 03:15:14;;;;;;;9.40;7.63;;;;;;;;;;4988832;28;20042;-70
2023/09/16 03:17:40;;;;;;;9.48;7.55;;;;;;;;;;4993359;28;20412;-70
2023/09/16 03:20:06;;;;;;;11.50;8.27;;;;;;;;;;4994534;28;20096;-70
2023/09/16 03:22:32;;;;;;;10.73;8.80;;;;;;;;;;4994958;28;20046;-70
2023/09/16 03:24:58;;;;;;;12.75;9.35;;;;;;;;;;4995002;28;20035;-70
2023/09/16 03:27:24;;;;;;;12.27;9.50;;;;;;;;;;4994086;28;20078;-70
2023/09/16 03:29:50;;;;;;;11.75;9.77;;;;;;;;;;4995071;28;20077;-70
2023/09/16 03:32:16;;;;;;;10.68;9.00;;;;;;;;;;4994706;28;20110;-70
2023/09/16 03:34:42;;;;;;;12.90;9.60;;;;;;;;;;4994554;28;20045;-70
2023/09/16 03:37:08;;;;;;;11.30;7.85;;;;;;;;;;4992779;28;20524;-70
2023/09/16 03:39:34;;;;;;;9.40;7.82;;;;;;;;;;4993413;28;20489;-70
2023/09/16 03:42:00;;;;;;;10.40;8.10;;;;;;;;;;4995004;28;20042;-70
2023/09/16 03:44:26;;;;;;;9.68;7.88;;;;;;;;;;4994389;28;20038;-71
2023/09/16 03:46:51;;;;;;;10.93;8.43;;;;;;;;;;4993998;28;20038;-71
2023/09/16 03:49:17;;;;;;;11.93;8.80;;;;;;;;;;4994682;28;20096;-71
2023/09/16 03:51:43;;;;;;;12.13;9.32;;;;;;;;;;4994527;28;20034;-71
2023/09/16 03:54:11;;;;;;;11.48;9.25;;;;;;;;;;4994264;28;20034;-71
2023/09/16 03:56:37;;;;;;;10.93;9.02;;;;;;;;;;4993677;28;20144;-71
2023/09/16 03:59:03;;;;;;;14.18;9.02;;;;;;;;;;4994666;28;20129;-71
2023/09/16 04:01:29;;;;;;;11.75;8.90;;;;;;;;;;4993811;28;20046;-71
2023/09/16 04:03:55;;;;;;;11.85;9.95;;;;;;;;;;4994390;28;20038;-71
2023/09/16 04:06:21;;;;;;;14.95;9.23;;;;;;;;;;4993910;28;20097;-71
2023/09/16 04:08:47;;;;;;;11.20;8.43;;;;;;;;;;4994217;28;20481;-71
2023/09/16 04:11:13;;;;;;;11.98;8.77;;;;;;;;;;4993678;28;20037;-70
2023/09/16 04:13:39;;;;;;;12.38;10.23;;;;;;;;;;4994257;28;20034;-70
2023/09/16 04:16:05;;;;;;;12.63;10.40;;;;;;;;;;4993754;28;20038;-70
2023/09/16 04:18:32;;;;;;;14.10;10.30;;;;;;;;;;4993707;28;20038;-70
2023/09/16 04:20:58;;;;;;;15.10;10.50;;;;;;;;;;4993847;28;20039;-70
2023/09/16 04:23:24;;;;;;;13.30;10.18;;;;;;;;;;4984506;28;20429;-70
2023/09/16 04:25:57;;;;;;;10.85;9.52;;;;;;;;;;4984141;28;20109;-71
2023/09/16 04:28:23;;;;;;;12.30;10.32;;;;;;;;;;4992268;28;20104;-71
2023/09/16 04:30:50;;;;;;;13.02;10.63;;;;;;;;;;4993813;28;20500;-71
2023/09/16 04:33:16;;;;;;;12.13;10.52;;;;;;;;;;4993019;28;20390;-71
2023/09/16 04:35:49;;;;;;;10.48;9.38;;;;;;;;;;4985287;28;20173;-71
2023/09/16 04:38:16;;;;;;;11.27;10.05;;;;;;;;;;4993634;28;20042;-71
2023/09/16 04:40:42;;;;;;;10.73;9.25;;;;;;;;;;4993986;28;20050;-71
2023/09/16 04:43:08;;;;;;;10.85;9.20;;;;;;;;;;4993431;28;20100;-70
2023/09/16 04:45:34;;;;;;;10.13;8.70;;;;;;;;;;4993476;28;20042;-70
2023/09/16 04:48:00;;;;;;;11.57;9.65;;;;;;;;;;4993306;28;20420;-70
2023/09/16 04:50:29;;;;;;;10.48;9.10;;;;;;;;;;4992721;28;20081;-70
2023/09/16 04:52:56;;;;;;;14.63;10.73;;;;;;;;;;4985116;28;20100;-71
2023/09/16 04:55:22;;;;;;;14.15;10.85;;;;;;;;;;4993432;28;20050;-70
2023/09/16 04:57:48;;;;;;;14.48;11.63;;;;;;;;;;4991729;28;20074;-70
2023/09/16 05:00:14;;;;;;;11.48;9.57;;;;;;;;;;4992988;28;20073;-70
2023/09/16 05:02:40;;;;;;;11.27;9.15;;;;;;;;;;4992827;28;20093;-70
2023/09/16 05:05:06;;;;;;;10.38;8.07;;;;;;;;;;4991573;28;20108;-70
2023/09/16 05:07:32;;;;;;;32.38;9.48;;;;;;;;;;4991249;28;20101;-71
2023/09/16 05:09:58;;;;;;;47.25;10.27;;;;;;;;;;4993362;28;20037;-71
2023/09/16 05:12:24;;;;;;;79.70;11.02;;;;;;;;;;4993064;28;20524;-71
2023/09/16 05:14:50;;;;;;;10.93;8.75;;;;;;;;;;4991360;28;20110;-71
2023/09/16 05:17:17;;;;;;;20.50;9.60;;;;;;;;;;4992477;28;20047;-71
2023/09/16 05:19:43;;;;;;;22.50;9.88;;;;;;;;;;4992906;28;20045;-71
2023/09/16 05:22:09;;;;;;;9.23;8.32;;;;;;;;;;4991616;28;20496;-70
2023/09/16 05:24:35;;;;;;;9.98;8.98;;;;;;;;;;4992376;28;20182;-71
2023/09/16 05:27:01;;;;;;;15.15;8.32;;;;;;;;;;4992426;28;20092;-71
2023/09/16 05:29:26;;;;;;;12.35;8.63;;;;;;;;;;4993018;28;20495;-70
2023/09/16 05:31:53;;;;;;;15.18;8.50;;;;;;;;;;4992523;28;20038;-71
2023/09/16 05:34:19;;;;;;;10.75;8.38;;;;;;;;;;4992584;28;20030;-71
2023/09/16 05:36:45;;;;;;;8.65;7.43;;;;;;;;;;4990559;28;20064;-71
2023/09/16 05:39:11;;;;;;;10.73;8.43;;;;;;;;;;4993002;28;20492;-70
2023/09/16 05:41:37;;;;;;;10.25;8.70;;;;;;;;;;4991871;28;20042;-71
2023/09/16 05:44:03;;;;;;;13.13;10.13;;;;;;;;;;4992618;28;20034;-71
2023/09/16 05:46:29;;;;;;;10.20;9.13;;;;;;;;;;4992365;28;20050;-70
2023/09/16 05:49:06;;;;;;;9.48;8.48;;;;;;;;;;4992416;28;20156;-70
2023/09/16 05:51:33;;;;;;;10.63;8.57;;;;;;;;;;4984589;28;20621;-70
2023/09/16 05:53:59;;;;;;;10.48;9.38;;;;;;;;;;4992486;28;20041;-70
2023/09/16 05:56:25;;;;;;;10.10;9.10;;;;;;;;;;4992477;28;20068;-70
2023/09/16 05:58:51;;;;;;;13.70;10.23;;;;;;;;;;4992037;28;20038;-70
2023/09/16 06:01:17;;;;;;;13.80;10.57;;;;;;;;;;4992499;28;20492;-70
2023/09/16 06:03:43;;;;;;;12.95;10.90;;;;;;;;;;4984239;28;20069;-70
2023/09/16 06:06:10;;;;;;;14.50;11.30;;;;;;;;;;4990928;28;20062;-70
2023/09/16 06:08:36;;;;;;;15.68;11.38;;;;;;;;;;4992175;28;20046;-70
2023/09/16 06:11:02;;;;;;;15.57;11.32;;;;;;;;;;4992649;28;20108;-71
2023/09/16 06:13:28;;;;;;;13.82;11.80;;;;;;;;;;4990202;28;20567;-70
2023/09/16 06:15:54;;;;;;;14.73;11.95;;;;;;;;;;4989455;28;20389;-70
2023/09/16 06:18:20;;;;;;;14.80;12.40;;;;;;;;;;4986777;28;20042;-70
2023/09/16 06:20:47;;;;;;;15.85;12.40;;;;;;;;;;4992556;28;20201;-71
2023/09/16 06:23:14;;;;;;;16.52;12.95;;;;;;;;;;4992096;28;20039;-70
2023/09/16 06:25:40;;;;;;;18.95;13.00;;;;;;;;;;4992155;28;20046;-70
2023/09/16 06:28:06;;;;;;;16.10;13.48;;;;;;;;;;4991983;28;20053;-70
2023/09/16 06:30:32;;;;;;;18.73;14.18;;;;;;;;;;4991670;28;20038;-70
2023/09/16 06:32:58;;;;;;;16.88;14.07;;;;;;;;;;4992074;28;20053;-71
2023/09/16 06:35:24;;;;;;;17.63;14.80;;;;;;;;;;4983031;28;20128;-70
2023/09/16 06:37:50;;;;;;;17.20;14.60;;;;;;;;;;4991690;28;20509;-71
2023/09/16 06:40:17;;;;;;;18.10;14.43;;;;;;;;;;4990952;28;20052;-71
2023/09/16 06:42:43;;;;;;;18.25;14.23;;;;;;;;;;4991845;28;20042;-71
2023/09/16 06:45:09;;;;;;;20.35;16.23;;;;;;;;;;4992122;28;20543;-70
2023/09/16 06:47:35;;;;;;;20.42;15.65;;;;;;;;;;4993754;28;20054;-70
2023/09/16 06:50:01;;;;;;;21.02;15.98;;;;;;;;;;4995827;28;20038;-70
2023/09/16 06:52:28;;;;;;;21.17;15.55;;;;;;;;;;4995852;28;20042;-70
2023/09/16 06:54:54;;;;;;;23.75;16.83;;;;;;;;;;4995584;28;20464;-70
2023/09/16 06:57:20;;;;;;;20.40;16.25;;;;;;;;;;4986801;28;20121;-70
2023/09/16 06:59:47;;;;;;;21.13;16.67;;;;;;;;;;4995176;28;20038;-70
2023/09/16 07:02:13;;;;;;;20.50;16.05;;;;;;;;;;4995596;28;20042;-70
2023/09/16 07:04:42;;;;;;;22.33;15.77;;;;;;;;;;4995221;28;20080;-70
2023/09/16 07:07:09;;;;;;;22.55;17.02;;;;;;;;;;4990916;28;20066;-70
2023/09/16 07:09:35;;;;;;;21.80;16.00;;;;;;;;;;4991573;28;20054;-70
2023/09/16 07:12:01;;;;;;;20.95;16.08;;;;;;;;;;4994186;28;20057;-70
2023/09/16 07:14:27;;;;;;;20.52;16.23;;;;;;;;;;4994858;28;20038;-71
2023/09/16 07:16:53;;;;;;;21.27;15.60;;;;;;;;;;4994976;28;20042;-71
2023/09/16 07:19:19;;;;;;;21.50;16.88;;;;;;;;;;4994931;28;20034;-71
2023/09/16 07:21:45;;;;;;;20.15;15.60;;;;;;;;;;4994683;28;20126;-71
2023/09/16 07:24:11;;;;;;;21.23;16.73;;;;;;;;;;4994748;28;20496;-70
2023/09/16 07:26:37;;;;;;;23.00;16.75;;;;;;;;;;4994774;28;20455;-70
2023/09/16 07:29:03;;;;;;;21.30;16.63;;;;;;;;;;4985436;28;20500;-70
2023/09/16 07:31:29;;;;;;;20.75;17.15;;;;;;;;;;4994837;28;20425;-71
2023/09/16 07:33:55;;;;;;;21.38;16.63;;;;;;;;;;4993143;28;20088;-71
2023/09/16 07:36:21;;;;;;;21.52;16.88;;;;;;;;;;4994768;28;20502;-71
2023/09/16 07:38:47;;;;;;;24.05;17.50;;;;;;;;;;4993962;28;20053;-71
2023/09/16 07:41:13;;;;;;;22.33;16.38;;;;;;;;;;4994845;28;20034;-70
2023/09/16 07:43:39;;;;;;;22.05;16.83;;;;;;;;;;4994551;28;20042;-70
2023/09/16 07:46:05;;;;;;;20.13;15.30;;;;;;;;;;4994292;28;20036;-70
2023/09/16 07:48:31;;;;;;;18.95;14.80;;;;;;;;;;4994526;28;20050;-70
2023/09/16 07:50:58;;;;;;;20.27;15.95;;;;;;;;;;4986590;28;20493;-71
2023/09/16 07:53:24;;;;;;;18.55;14.20;;;;;;;;;;4994181;28;20050;-71
2023/09/16 07:55:50;;;;;;;21.73;15.25;;;;;;;;;;4994268;28;20038;-71
2023/09/16 07:58:16;;;;;;;20.25;15.23;;;;;;;;;;4994145;28;20443;-71
2023/09/16 08:00:42;;;;;;;20.13;14.45;;;;;;;;;;4994533;28;20038;-71
2023/09/16 08:03:08;;;;;;;18.23;14.65;;;;;;;;;;4994232;28;20038;-71
2023/09/16 08:05:34;;;;;;;16.23;12.93;;;;;;;;;;4994304;28;20154;-71
2023/09/16 08:08:00;;;;;;;20.33;14.60;;;;;;;;;;4993927;28;20049;-71
2023/09/16 08:10:26;;;;;;;17.17;14.52;;;;;;;;;;4993502;28;20039;-71
2023/09/16 08:12:52;;;;;;;18.33;14.43;;;;;;;;;;4994357;28;20042;-71
2023/09/16 08:15:18;;;;;;;18.38;14.15;;;;;;;;;;4993738;28;20038;-71
2023/09/16 08:17:44;;;;;;;18.13;14.20;;;;;;;;;;4994157;28;20053;-71
2023/09/16 08:20:10;;;;;;;16.05;13.52;;;;;;;;;;4993588;28;20038;-71
2023/09/16 08:22:36;;;;;;;17.25;14.25;;;;;;;;;;4994071;28;20042;-71
2023/09/16 08:25:05;;;;;;;17.58;13.02;;;;;;;;;;4993460;28;20049;-71
2023/09/16 08:27:31;;;;;;;16.45;12.93;;;;;;;;;;4992526;28;20042;-71
2023/09/16 08:29:57;;;;;;;18.38;13.88;;;;;;;;;;4993505;28;20117;-71
2023/09/16 08:32:26;;;;;;;16.35;12.68;;;;;;;;;;4992628;28;20069;-71
2023/09/16 08:34:52;;;;;;;17.08;12.48;;;;;;;;;;4993769;28;20047;-71
2023/09/16 08:37:18;;;;;;;15.85;12.20;;;;;;;;;;4991623;28;20060;-71
2023/09/16 08:39:44;;;;;;;16.13;13.25;;;;;;;;;;4993525;28;20049;-71
2023/09/16 08:42:18;;;;;;;15.55;12.07;;;;;;;;;;4993923;28;20105;-70
2023/09/16 08:44:44;;;;;;;14.88;12.27;;;;;;;;;;4992990;28;20050;-71
2023/09/16 08:47:14;;;;;;;15.27;12.23;;;;;;;;;;4993445;28;20088;-71
2023/09/16 08:49:52;;;;;;;15.77;12.57;;;;;;;;;;4985519;28;20042;-71
2023/09/16 08:52:18;;;;;;;17.35;13.18;;;;;;;;;;4993940;28;20042;-71
2023/09/16 08:54:45;;;;;;;15.13;11.60;;;;;;;;;;4992855;28;20030;-71
2023/09/16 08:57:12;;;;;;;13.60;10.98;;;;;;;;;;4993136;28;20046;-71
2023/09/16 08:59:39;;;;;;;15.07;10.50;;;;;;;;;;4993466;28;20065;-71
2023/09/16 09:02:05;;;;;;;15.20;10.55;;;;;;;;;;4984700;28;20034;-71
2023/09/16 09:04:31;;;;;;;14.23;11.13;;;;;;;;;;4992856;28;20487;-71
2023/09/16 09:06:58;;;;;;;13.23;10.98;;;;;;;;;;4992734;28;20042;-71
2023/09/16 09:09:24;;;;;;;13.45;10.93;;;;;;;;;;4992015;28;20500;-71
2023/09/16 09:11:50;;;;;;;14.13;10.57;;;;;;;;;;4993345;28;20034;-71
2023/09/16 09:14:17;;;;;;;13.32;10.60;;;;;;;;;;4991737;28;20412;-71
2023/09/16 09:16:46;;;;;;;14.65;10.57;;;;;;;;;;4991868;28;20048;-71
2023/09/16 09:19:12;;;;;;;12.57;10.13;;;;;;;;;;4985561;28;20052;-71
2023/09/16 09:21:39;;;;;;;14.48;11.88;;;;;;;;;;4991536;28;20046;-71
2023/09/16 09:24:05;;;;;;;15.00;11.73;;;;;;;;;;4993110;28;20029;-71
2023/09/16 09:26:31;;;;;;;13.93;11.15;;;;;;;;;;4992289;28;20386;-71
2023/09/16 09:28:59;;;;;;;13.38;10.57;;;;;;;;;;4992835;28;20038;-71
2023/09/16 09:31:25;;;;;;;15.75;10.32;;;;;;;;;;4992542;28;20492;-71
2023/09/16 09:33:51;;;;;;;15.38;11.88;;;;;;;;;;4992099;28;20054;-71
2023/09/16 09:36:18;;;;;;;13.85;11.02;;;;;;;;;;4992725;28;20042;-71
2023/09/16 09:38:45;;;;;;;12.07;10.25;;;;;;;;;;4992878;28;20500;-71
2023/09/16 09:41:12;;;;;;;13.18;10.13;;;;;;;;;;4993013;28;20039;-71
2023/09/16 09:43:38;;;;;;;11.85;9.65;;;;;;;;;;4984423;28;20038;-71
2023/09/16 09:46:04;;;;;;;12.82;8.43;;;;;;;;;;4992093;28;20038;-71
2023/09/16 09:48:32;;;;;;;12.45;9.35;;;;;;;;;;4992563;28;20046;-71
2023/09/16 09:50:58;;;;;;;11.73;9.40;;;;;;;;;;4990667;28;20046;-71
2023/09/16 09:53:24;;;;;;;11.82;9.18;;;;;;;;;;4991655;28;20050;-71
2023/09/16 09:55:50;;;;;;;9.55;8.45;;;;;;;;;;4991987;28;20527;-71
2023/09/16 09:58:18;;;;;;;11.38;9.38;;;;;;;;;;4992710;28;20125;-71
2023/09/16 10:00:47;;;;;;;10.90;8.65;;;;;;;;;;4991937;28;20049;-71
2023/09/16 10:03:14;;;;;;;10.60;8.18;;;;;;;;;;4992419;28;20042;-71
2023/09/16 10:05:40;;;;;;;12.45;9.10;;;;;;;;;;4992470;28;20050;-71
2023/09/16 10:08:06;;;;;;;10.60;8.38;;;;;;;;;;4991976;28;20050;-71
2023/09/16 10:10:32;;;;;;;10.20;8.02;;;;;;;;;;4991170;28;20412;-71
2023/09/16 10:12:59;;;;;;;10.40;7.75;;;;;;;;;;4984545;28;20038;-71
2023/09/16 10:15:25;;;;;;;9.05;7.53;;;;;;;;;;4992386;28;20080;-71
2023/09/16 10:17:51;;;;;;;9.77;7.28;;;;;;;;;;4991785;28;20050;-71
2023/09/16 10:20:17;;;;;;;10.38;7.25;;;;;;;;;;4990966;28;20039;-71
2023/09/16 10:22:44;;;;;;;8.20;7.18;;;;;;;;;;4977650;28;20101;-71
2023/09/16 10:25:11;;;;;;;9.60;6.88;;;;;;;;;;4994359;28;20054;-71
2023/09/16 10:27:46;;;;;;;8.93;6.75;;;;;;;;;;4994525;28;20039;-71
2023/09/16 10:30:14;;;;;;;10.05;6.55;;;;;;;;;;4995841;28;20040;-71
2023/09/16 10:32:40;;;;;;;8.35;6.13;;;;;;;;;;4996425;28;20043;-71
2023/09/16 10:35:07;;;;;;;8.82;6.50;;;;;;;;;;4993876;28;20093;-71
2023/09/16 10:37:33;;;;;;;7.90;6.38;;;;;;;;;;4994492;28;20046;-71
2023/09/16 10:39:59;;;;;;;6.90;5.40;;;;;;;;;;4995382;28;20873;-71
2023/09/16 10:42:26;;;;;;;6.38;5.22;;;;;;;;;;4994730;28;20392;-71
2023/09/16 10:44:52;;;;;;;8.10;5.32;;;;;;;;;;4994200;28;20053;-71
2023/09/16 10:47:18;;;;;;;6.35;5.40;;;;;;;;;;4995412;28;20579;-71
2023/09/16 10:49:44;;;;;;;7.22;5.13;;;;;;;;;;4993724;28;20053;-71
2023/09/16 10:52:16;;;;;;;6.05;5.45;;;;;;;;;;4995451;28;20038;-71
2023/09/16 10:54:57;;;;;;;9.43;5.07;;;;;;;;;;4995801;28;20034;-71
2023/09/16 10:57:38;;;;;;;7.40;4.57;;;;;;;;;;4993119;28;20050;-71
2023/09/16 11:00:03;;;;;;;;;;;;;;;;;;4995942;28;20049;-71
2023/09/16 11:02:41;;;;;;;6.85;5.07;;;;;;;;;;4995494;28;19917;-70
2023/09/16 11:05:07;;;;;;;5.57;4.18;;;;;;;;;;4995345;28;20053;-71
2023/09/16 11:07:34;;;;;;;4.40;3.40;;;;;;;;;;4993267;28;20630;-71
2023/09/16 11:10:01;;;;;;;4.82;3.10;;;;;;;;;;4994102;28;20560;-71
2023/09/16 11:12:28;;;;;;;5.63;3.60;;;;;;;;;;4995281;28;20046;-71
2023/09/16 11:14:54;;;;;;;5.32;3.30;;;;;;;;;;4993800;28;20396;-71
2023/09/16 11:17:21;;;;;;;3.92;2.70;;;;;;;;;;4986871;28;20042;-71
2023/09/16 11:19:47;;;;;;;3.83;3.28;;;;;;;;;;4994005;28;20081;-71
2023/09/16 11:22:14;;;;;;;6.82;3.00;;;;;;;;;;4994838;28;20128;-71
2023/09/16 11:24:40;;;;;;;4.72;2.78;;;;;;;;;;4995132;28;20042;-71
2023/09/16 11:27:06;;;;;;;4.68;3.13;;;;;;;;;;4993012;28;20054;-71
2023/09/16 11:29:32;;;;;;;3.60;2.50;;;;;;;;;;4995225;28;20042;-71
2023/09/16 11:31:59;;;;;;;4.40;2.70;;;;;;;;;;4992018;28;20039;-71
2023/09/16 11:34:26;;;;;;;3.90;3.08;;;;;;;;;;4994995;28;20050;-71
2023/09/16 11:36:53;;;;;;;3.30;2.70;;;;;;;;;;4993072;28;20049;-71
2023/09/16 11:39:21;;;;;;;4.15;2.72;;;;;;;;;;4995065;28;20097;-71
2023/09/16 11:41:48;;;;;;;3.78;2.40;;;;;;;;;;4994147;28;20042;-71
2023/09/16 11:44:15;;;;;;;4.13;2.90;;;;;;;;;;4994887;28;20042;-71
2023/09/16 11:46:41;;;;;;;2.88;2.55;;;;;;;;;;4994135;28;20046;-71
2023/09/16 11:49:07;;;;;;;2.95;2.65;;;;;;;;;;4993214;28;20082;-71
2023/09/16 11:51:35;;;;;;;4.53;2.70;;;;;;;;;;4994374;28;20374;-71
2023/09/16 11:54:02;;;;;;;2.97;2.63;;;;;;;;;;4994636;28;20042;-71
2023/09/16 11:56:34;;;;;;;3.97;2.90;;;;;;;;;;4994007;28;20045;-71
2023/09/16 11:59:01;;;;;;;5.85;3.40;;;;;;;;;;4994545;28;20049;-71
2023/09/16 12:01:29;;;;;;;5.15;3.33;;;;;;;;;;4994104;28;20038;-71
2023/09/16 12:03:56;;;;;;;4.70;3.00;;;;;;;;;;4993563;28;20030;-71
2023/09/16 12:06:25;;;;;;;4.57;2.50;;;;;;;;;;4993769;28;20038;-71
2023/09/16 12:08:52;;;;;;;3.55;2.50;;;;;;;;;;4994391;28;20050;-71
2023/09/16 12:11:18;;;;;;;4.75;3.42;;;;;;;;;;4992860;28;20045;-71
2023/09/16 12:13:44;;;;;;;4.28;2.90;;;;;;;;;;4993954;28;20042;-71
2023/09/16 12:16:10;;;;;;;5.25;2.97;;;;;;;;;;4993426;28;20045;-71
2023/09/16 12:18:37;;;;;;;4.97;2.95;;;;;;;;;;4994002;28;20050;-71
2023/09/16 12:21:05;;;;;;;3.25;2.90;;;;;;;;;;4992292;28;20092;-71
2023/09/16 12:23:31;;;;;;;5.72;3.20;;;;;;;;;;4994158;28;20057;-71
2023/09/16 12:26:00;;;;;;;3.92;2.72;;;;;;;;;;4993733;28;20050;-71
2023/09/16 12:28:27;;;;;;;3.30;2.83;;;;;;;;;;4994021;28;20042;-71
2023/09/16 12:30:55;;;;;;;5.05;2.83;;;;;;;;;;4993363;28;20042;-71
2023/09/16 12:33:37;;;;;;;3.08;2.50;;;;;;;;;;4993473;28;20080;-71
2023/09/16 12:36:03;;;;;;;3.42;2.83;;;;;;;;;;4993502;28;20085;-71
2023/09/16 12:38:30;;;;;;;3.10;2.80;;;;;;;;;;4985449;28;20053;-71
2023/09/16 12:40:56;;;;;;;4.95;2.83;;;;;;;;;;4992273;28;20061;-71
2023/09/16 12:43:22;;;;;;;4.22;2.72;;;;;;;;;;4992214;28;20053;-71
2023/09/16 12:45:48;;;;;;;4.60;2.90;;;;;;;;;;4992161;28;20066;-71
2023/09/16 12:48:14;;;;;;;4.78;3.00;;;;;;;;;;4993309;28;20046;-71
2023/09/16 12:50:40;;;;;;;3.15;2.80;;;;;;;;;;4993552;28;20073;-71
2023/09/16 12:53:06;;;;;;;4.47;3.70;;;;;;;;;;4993478;28;20049;-71
2023/09/16 12:55:33;;;;;;;5.65;3.60;;;;;;;;;;4993050;28;20047;-71
2023/09/16 12:57:59;;;;;;;5.47;3.30;;;;;;;;;;4993173;28;20042;-71
2023/09/16 13:00:28;;;;;;;4.57;3.45;;;;;;;;;;4992031;28;20062;-70
2023/09/16 13:02:54;;;;;;;6.00;3.20;;;;;;;;;;4992458;28;20038;-71
2023/09/16 13:05:23;;;;;;;3.83;2.75;;;;;;;;;;4993278;28;20034;-71
2023/09/16 13:07:51;;;;;;;3.55;3.25;;;;;;;;;;4993247;28;20046;-71
2023/09/16 13:10:20;;;;;;;4.22;2.95;;;;;;;;;;4983318;28;20174;-71
2023/09/16 13:12:50;;;;;;;4.40;2.70;;;;;;;;;;4992751;28;20038;-71
2023/09/16 13:15:17;;;;;;;2.83;2.50;;;;;;;;;;4992976;28;20429;-71
2023/09/16 13:17:48;;;;;;;4.70;2.55;;;;;;;;;;4993144;28;20130;-71
2023/09/16 13:20:15;;;;;;;4.07;2.50;;;;;;;;;;4984701;28;20174;-71
2023/09/16 13:22:42;;;;;;;3.80;2.72;;;;;;;;;;4992680;28;20046;-71
2023/09/16 13:25:27;;;;;;;5.00;2.60;;;;;;;;;;4992617;28;20069;-71
2023/09/16 13:27:52;;;;;;;5.65;3.00;;;;;;;;;;4990818;28;20133;-71
2023/09/16 13:30:22;;;;;;;4.82;2.88;;;;;;;;;;4993104;28;20126;-71
2023/09/16 13:32:52;;;;;;;4.65;2.75;;;;;;;;;;4992520;28;20393;-71
2023/09/16 13:35:18;;;;;;;3.50;2.70;;;;;;;;;;4992410;28;20030;-71
2023/09/16 13:37:44;;;;;;;3.90;2.72;;;;;;;;;;4992216;28;20069;-71
2023/09/16 13:40:12;;;;;;;4.20;2.80;;;;;;;;;;4993067;28;20535;-71
2023/09/16 13:42:38;;;;;;;3.88;2.72;;;;;;;;;;4992974;28;20081;-71
2023/09/16 13:45:04;;;;;;;7.18;2.30;;;;;;;;;;4992262;28;20038;-71
2023/09/16 13:47:30;;;;;;;3.35;2.63;;;;;;;;;;4992402;28;20172;-71
2023/09/16 13:49:56;;;;;;;4.53;2.65;;;;;;;;;;4984606;28;20526;-71
2023/09/16 13:52:22;;;;;;;2.58;2.38;;;;;;;;;;4992588;28;20074;-71
2023/09/16 13:54:48;;;;;;;4.43;2.58;;;;;;;;;;4992454;28;20100;-71
2023/09/16 13:57:14;;;;;;;3.42;2.40;;;;;;;;;;4995913;28;20038;-71
2023/09/16 13:59:40;;;;;;;3.15;2.67;;;;;;;;;;4996872;28;20042;-71
2023/09/16 14:02:06;;;;;;;4.43;2.55;;;;;;;;;;4995816;28;20049;-71
2023/09/16 14:04:32;;;;;;;3.80;2.70;;;;;;;;;;4996506;28;20061;-71
2023/09/16 14:06:58;;;;;;;4.80;2.90;;;;;;;;;;4996002;28;20049;-71
2023/09/16 14:09:24;;;;;;;4.72;2.53;;;;;;;;;;4996184;28;20042;-71
2023/09/16 14:11:50;;;;;;;3.22;2.92;;;;;;;;;;4996737;28;20045;-71
2023/09/16 14:14:16;;;;;;;4.35;2.58;;;;;;;;;;4996223;28;20034;-71
2023/09/16 14:16:42;;;;;;;4.63;2.67;;;;;;;;;;4995584;28;20078;-71
2023/09/16 14:19:08;;;;;;;5.00;2.50;;;;;;;;;;4995978;28;20594;-71
2023/09/16 14:21:34;;;;;;;2.97;2.67;;;;;;;;;;4996248;28;20046;-71
2023/09/16 14:24:00;;;;;;;3.03;2.30;;;;;;;;;;4994824;28;20049;-71
2023/09/16 14:26:26;;;;;;;3.42;2.45;;;;;;;;;;4995748;28;20096;-71
2023/09/16 14:28:52;;;;;;;5.03;2.65;;;;;;;;;;4995870;28;20034;-71